createdAt,value
2022-10-30T00:01:02.023Z,14.22
2022-10-30T00:03:28.370Z,14.22
2022-10-30T00:05:55.237Z,14.17
2022-10-30T00:08:25.493Z,14.30
2022-10-30T00:10:52.335Z,14.22
2022-10-30T00:13:19.555Z,14.15
2022-10-30T00:15:54.214Z,14.04
2022-10-30T00:18:20.970Z,14.01
2022-10-30T00:20:48.205Z,14.13
2022-10-30T00:23:15.441Z,13.94
2022-10-30T00:25:41.877Z,13.98
2022-10-30T00:28:10.767Z,14.17
2022-10-30T00:30:37.542Z,14.20
2022-10-30T00:33:04.056Z,14.38
2022-10-30T00:35:31.036Z,14.41
2022-10-30T00:37:57.955Z,14.33
2022-10-30T00:40:24.549Z,14.25
2022-10-30T00:42:50.998Z,14.27
2022-10-30T00:45:17.887Z,14.38
2022-10-30T00:47:58.105Z,14.32
2022-10-30T00:50:32.094Z,14.34
2022-10-30T00:53:11.680Z,14.36
2022-10-30T00:55:44.570Z,14.24
2022-10-30T00:58:15.353Z,14.20
2022-10-30T01:00:46.301Z,14.23
2022-10-30T01:03:13.071Z,14.18
2022-10-30T01:05:40.249Z,14.13
2022-10-30T01:08:06.667Z,14.22
2022-10-30T01:10:33.442Z,14.05
2022-10-30T01:13:01.157Z,13.95
2022-10-30T01:15:34.670Z,13.99
2022-10-30T01:18:01.218Z,14.06
2022-10-30T01:20:43.405Z,14.06
2022-10-30T01:23:28.433Z,14.03
2022-10-30T01:26:06.531Z,13.98
2022-10-30T01:28:40.790Z,13.99
2022-10-30T01:31:42.286Z,14.14
2022-10-30T01:34:30.735Z,14.06
2022-10-30T01:37:06.393Z,14.07
2022-10-30T01:39:37.177Z,14.09
2022-10-30T01:42:28.815Z,14.09
2022-10-30T01:44:55.390Z,13.98
2022-10-30T01:47:43.275Z,13.91
2022-10-30T01:50:22.675Z,13.93
2022-10-30T01:52:58.459Z,14.07
2022-10-30T01:55:42.490Z,14.00
2022-10-30T01:58:19.964Z,13.98
2022-10-30T02:00:52.573Z,13.94
2022-10-30T02:03:19.505Z,13.82
2022-10-30T02:05:49.039Z,13.83
2022-10-30T02:08:15.668Z,13.85
2022-10-30T02:10:44.577Z,13.76
2022-10-30T02:13:11.268Z,13.82
2022-10-30T02:15:38.604Z,13.78
2022-10-30T02:18:05.267Z,13.79
2022-10-30T02:20:32.176Z,13.80
2022-10-30T02:22:59.539Z,13.86
2022-10-30T02:25:26.837Z,13.75
2022-10-30T02:27:53.289Z,13.93
2022-10-30T02:30:19.658Z,13.91
2022-10-30T02:32:46.006Z,13.90
2022-10-30T02:35:12.513Z,13.85
2022-10-30T02:37:39.576Z,13.86
2022-10-30T02:40:08.211Z,13.77
2022-10-30T02:42:35.149Z,13.71
2022-10-30T02:45:01.577Z,13.74
2022-10-30T02:47:30.922Z,13.88
2022-10-30T02:49:57.295Z,13.80
2022-10-30T02:52:23.637Z,13.61
2022-10-30T02:54:49.975Z,13.61
2022-10-30T02:57:16.383Z,13.46
2022-10-30T02:59:42.726Z,13.41
2022-10-30T03:02:09.158Z,13.34
2022-10-30T03:04:35.558Z,13.38
2022-10-30T03:07:01.901Z,13.54
2022-10-30T03:09:28.444Z,13.52
2022-10-30T03:11:54.914Z,13.50
2022-10-30T03:14:21.280Z,13.38
2022-10-30T03:16:47.635Z,13.48
2022-10-30T03:19:14.001Z,13.54
2022-10-30T03:21:40.347Z,13.46
2022-10-30T03:24:06.794Z,13.49
2022-10-30T03:26:33.211Z,13.37
2022-10-30T03:28:59.552Z,13.43
2022-10-30T03:31:25.924Z,13.44
2022-10-30T03:33:52.457Z,13.51
2022-10-30T03:36:18.843Z,13.54
2022-10-30T03:38:45.179Z,13.54
2022-10-30T03:41:11.542Z,13.57
2022-10-30T03:43:38.038Z,13.46
2022-10-30T03:46:04.877Z,13.48
2022-10-30T03:48:31.349Z,13.38
2022-10-30T03:50:59.850Z,13.22
2022-10-30T03:53:28.402Z,13.42
2022-10-30T03:56:00.098Z,13.50
2022-10-30T03:58:27.838Z,13.51
2022-10-30T04:00:54.826Z,13.48
2022-10-30T04:03:21.485Z,13.43
2022-10-30T04:05:50.974Z,13.49
2022-10-30T04:08:17.902Z,13.48
2022-10-30T04:10:45.493Z,13.49
2022-10-30T04:13:14.069Z,13.42
2022-10-30T04:15:40.668Z,13.43
2022-10-30T04:18:10.496Z,13.46
2022-10-30T04:20:36.892Z,13.38
2022-10-30T04:23:06.060Z,13.32
2022-10-30T04:25:35.051Z,13.36
2022-10-30T04:28:02.322Z,13.33
2022-10-30T04:30:31.268Z,13.25
2022-10-30T04:32:58.273Z,13.14
2022-10-30T04:35:27.569Z,13.01
2022-10-30T04:37:55.004Z,12.95
2022-10-30T04:40:22.575Z,12.86
2022-10-30T04:42:49.310Z,12.66
2022-10-30T04:45:15.877Z,12.79
2022-10-30T04:47:42.491Z,12.78
2022-10-30T04:50:09.508Z,12.88
2022-10-30T04:52:36.465Z,12.83
2022-10-30T04:55:03.664Z,12.79
2022-10-30T04:57:31.648Z,12.79
2022-10-30T04:59:58.593Z,12.69
2022-10-30T05:02:25.531Z,12.62
2022-10-30T05:04:52.105Z,12.62
2022-10-30T05:07:18.747Z,12.79
2022-10-30T05:09:45.138Z,12.85
2022-10-30T05:12:11.553Z,12.87
2022-10-30T05:14:38.014Z,12.73
2022-10-30T05:17:04.411Z,12.62
2022-10-30T05:19:30.762Z,12.54
2022-10-30T05:21:57.174Z,12.50
2022-10-30T05:24:23.607Z,12.56
2022-10-30T05:26:50.516Z,12.43
2022-10-30T05:29:16.853Z,12.64
2022-10-30T05:31:43.205Z,12.70
2022-10-30T05:34:09.618Z,12.75
2022-10-30T05:36:35.988Z,12.58
2022-10-30T05:39:02.976Z,12.66
2022-10-30T05:41:30.031Z,12.55
2022-10-30T05:43:56.670Z,12.64
2022-10-30T05:46:23.078Z,12.60
2022-10-30T05:48:49.445Z,12.53
2022-10-30T05:51:15.784Z,12.57
2022-10-30T05:53:42.135Z,12.65
2022-10-30T05:56:08.481Z,12.64
2022-10-30T05:58:34.858Z,12.70
2022-10-30T06:01:05.535Z,12.74
2022-10-30T06:03:31.897Z,12.64
2022-10-30T06:05:58.240Z,12.76
2022-10-30T06:08:24.655Z,12.57
2022-10-30T06:10:50.994Z,12.72
2022-10-30T06:13:17.454Z,12.69
2022-10-30T06:15:45.219Z,12.66
2022-10-30T06:18:11.556Z,12.64
2022-10-30T06:20:37.916Z,12.77
2022-10-30T06:23:06.981Z,12.51
2022-10-30T06:25:40.671Z,12.74
2022-10-30T06:28:07.670Z,12.67
2022-10-30T06:30:34.042Z,12.52
2022-10-30T06:33:02.143Z,12.53
2022-10-30T06:35:29.024Z,12.55
2022-10-30T06:37:56.486Z,12.66
2022-10-30T06:40:23.593Z,12.69
2022-10-30T06:42:51.889Z,12.63
2022-10-30T06:45:20.111Z,12.70
2022-10-30T06:47:46.838Z,12.70
2022-10-30T06:50:15.952Z,12.67
2022-10-30T06:52:42.577Z,12.63
2022-10-30T06:55:10.220Z,12.49
2022-10-30T06:57:37.266Z,12.65
2022-10-30T07:00:05.186Z,12.67
2022-10-30T07:02:31.583Z,12.78
2022-10-30T07:04:58.002Z,12.68
2022-10-30T07:07:24.445Z,12.67
2022-10-30T07:09:50.910Z,12.70
2022-10-30T07:12:17.640Z,12.71
2022-10-30T07:14:45.373Z,12.72
2022-10-30T07:17:13.824Z,12.81
2022-10-30T07:19:40.178Z,12.85
2022-10-30T07:22:06.525Z,12.89
2022-10-30T07:24:32.859Z,12.92
2022-10-30T07:26:59.210Z,13.00
2022-10-30T07:29:25.564Z,13.18
2022-10-30T07:32:02.316Z,13.23
2022-10-30T07:34:29.724Z,13.28
2022-10-30T07:36:56.093Z,13.26
2022-10-30T07:39:22.444Z,13.28
2022-10-30T07:41:50.591Z,13.23
2022-10-30T07:44:17.465Z,13.33
2022-10-30T07:46:43.920Z,13.33
2022-10-30T07:49:10.324Z,13.47
2022-10-30T07:51:36.672Z,13.63
2022-10-30T07:54:03.147Z,13.74
2022-10-30T07:56:29.574Z,13.75
2022-10-30T07:58:55.908Z,13.76
2022-10-30T08:01:22.422Z,13.91
2022-10-30T08:03:48.870Z,14.06
2022-10-30T08:06:15.249Z,14.27
2022-10-30T08:08:43.326Z,14.67
2022-10-30T08:11:09.891Z,15.26
2022-10-30T08:13:36.255Z,15.41
2022-10-30T08:16:02.602Z,15.68
2022-10-30T08:18:29.035Z,16.17
2022-10-30T08:20:55.407Z,16.33
2022-10-30T08:23:21.969Z,17.18
2022-10-30T08:25:48.502Z,17.69
2022-10-30T08:28:14.857Z,17.33
2022-10-30T08:30:41.493Z,17.75
2022-10-30T08:33:13.335Z,18.39
2022-10-30T08:35:47.068Z,18.50
2022-10-30T08:38:13.421Z,18.70
2022-10-30T08:40:39.753Z,18.72
2022-10-30T08:43:06.086Z,19.17
2022-10-30T08:45:32.533Z,18.44
2022-10-30T08:48:01.360Z,19.27
2022-10-30T08:50:28.164Z,19.07
2022-10-30T08:52:54.906Z,19.29
2022-10-30T08:55:21.741Z,19.19
2022-10-30T08:57:48.126Z,18.91
2022-10-30T09:00:14.699Z,19.47
2022-10-30T09:02:41.243Z,19.55
2022-10-30T09:05:09.030Z,19.81
2022-10-30T09:07:35.920Z,19.63
2022-10-30T09:10:02.820Z,20.66
2022-10-30T09:12:29.451Z,20.37
2022-10-30T09:14:56.070Z,20.26
2022-10-30T09:17:22.740Z,19.85
2022-10-30T09:19:49.184Z,20.04
2022-10-30T09:22:16.869Z,20.01
2022-10-30T09:24:43.210Z,20.23
2022-10-30T09:27:09.607Z,20.61
2022-10-30T09:29:36.159Z,20.74
2022-10-30T09:32:05.016Z,20.35
2022-10-30T09:34:31.375Z,21.34
2022-10-30T09:36:57.720Z,21.21
2022-10-30T09:39:25.272Z,21.21
2022-10-30T09:42:11.070Z,21.11
2022-10-30T09:45:27.759Z,20.88
2022-10-30T09:48:10.802Z,20.43
2022-10-30T09:50:53.353Z,20.41
2022-10-30T09:53:32.717Z,21.20
2022-10-30T09:56:23.759Z,22.06
2022-10-30T09:59:17.610Z,21.48
2022-10-30T10:01:58.317Z,21.48
2022-10-30T10:04:44.399Z,22.37
2022-10-30T10:07:31.437Z,21.50
2022-10-30T10:10:05.438Z,21.35
2022-10-30T10:12:41.037Z,21.78
2022-10-30T10:15:17.200Z,21.03
2022-10-30T10:17:45.836Z,20.78
2022-10-30T10:20:34.519Z,21.04
2022-10-30T10:23:11.958Z,21.12
2022-10-30T10:25:44.138Z,20.91
2022-10-30T10:28:29.785Z,21.04
2022-10-30T10:31:10.831Z,21.36
2022-10-30T10:33:57.790Z,20.75
2022-10-30T10:36:44.518Z,21.93
2022-10-30T10:39:25.694Z,22.37
2022-10-30T10:42:09.156Z,21.83
2022-10-30T10:44:54.246Z,22.47
2022-10-30T10:47:26.512Z,22.59
2022-10-30T10:50:02.998Z,22.57
2022-10-30T10:52:37.964Z,22.67
2022-10-30T10:55:12.808Z,22.45
2022-10-30T10:57:41.808Z,22.66
2022-10-30T11:00:15.067Z,22.50
2022-10-30T11:02:57.963Z,22.07
2022-10-30T11:05:29.870Z,22.19
2022-10-30T11:08:03.954Z,22.15
2022-10-30T11:10:30.318Z,22.75
2022-10-30T11:12:56.915Z,22.27
2022-10-30T11:15:29.622Z,22.38
2022-10-30T11:18:03.689Z,22.52
2022-10-30T11:20:48.541Z,22.48
2022-10-30T11:23:44.106Z,22.63
2022-10-30T11:26:22.907Z,22.12
2022-10-30T11:29:20.269Z,22.16
2022-10-30T11:31:47.135Z,22.09
2022-10-30T11:34:17.369Z,22.63
2022-10-30T11:36:51.133Z,22.44
2022-10-30T11:39:22.823Z,22.45
2022-10-30T11:42:06.407Z,21.88
2022-10-30T11:44:45.329Z,22.26
2022-10-30T11:47:15.518Z,21.76
2022-10-30T11:49:48.389Z,22.01
2022-10-30T11:52:18.125Z,22.28
2022-10-30T11:54:53.224Z,22.12
2022-10-30T11:57:24.444Z,21.81
2022-10-30T11:59:56.561Z,22.08
2022-10-30T12:02:28.712Z,22.19
2022-10-30T12:05:00.963Z,21.83
2022-10-30T12:07:31.695Z,21.23
2022-10-30T12:09:59.358Z,21.38
2022-10-30T12:12:25.672Z,21.50
2022-10-30T12:14:52.727Z,21.23
2022-10-30T12:17:21.518Z,21.31
2022-10-30T12:19:54.849Z,21.60
2022-10-30T12:22:39.539Z,21.72
2022-10-30T12:25:18.275Z,21.74
2022-10-30T12:27:44.993Z,21.57
2022-10-30T12:30:21.295Z,21.91
2022-10-30T12:33:12.313Z,21.76
2022-10-30T12:35:55.416Z,21.45
2022-10-30T12:38:34.324Z,21.45
2022-10-30T12:41:14.541Z,21.50
2022-10-30T12:43:45.766Z,21.45
2022-10-30T12:46:21.261Z,21.43
2022-10-30T12:48:57.387Z,21.60
2022-10-30T12:51:33.007Z,21.65
2022-10-30T12:54:09.550Z,21.55
2022-10-30T12:56:40.182Z,21.38
2022-10-30T12:59:32.944Z,20.96
2022-10-30T13:02:15.766Z,20.72
2022-10-30T13:04:47.950Z,20.76
2022-10-30T13:07:26.957Z,20.86
2022-10-30T13:10:08.812Z,20.76
2022-10-30T13:12:39.448Z,20.62
2022-10-30T13:15:18.231Z,20.54
2022-10-30T13:17:44.587Z,20.72
2022-10-30T13:20:14.182Z,20.80
2022-10-30T13:22:51.592Z,20.78
2022-10-30T13:25:24.330Z,20.95
2022-10-30T13:28:06.121Z,20.76
2022-10-30T13:30:39.335Z,20.75
2022-10-30T13:33:22.032Z,20.85
2022-10-30T13:36:20.501Z,20.89
2022-10-30T13:38:46.800Z,20.84
2022-10-30T13:41:21.879Z,20.71
2022-10-30T13:44:31.424Z,20.50
2022-10-30T13:47:34.281Z,20.63
2022-10-30T13:50:15.848Z,20.56
2022-10-30T13:52:47.226Z,20.51
2022-10-30T13:55:19.765Z,20.45
2022-10-30T13:57:46.077Z,20.49
2022-10-30T14:00:33.987Z,20.32
2022-10-30T14:03:16.569Z,20.30
2022-10-30T14:05:53.294Z,20.28
2022-10-30T14:08:33.149Z,20.26
2022-10-30T14:11:01.115Z,20.10
2022-10-30T14:13:33.473Z,20.01
2022-10-30T14:16:05.887Z,19.88
2022-10-30T14:18:44.606Z,19.85
2022-10-30T14:21:32.176Z,19.86
2022-10-30T14:24:03.960Z,19.84
2022-10-30T14:26:30.704Z,19.80
2022-10-30T14:28:57.129Z,19.83
2022-10-30T14:31:35.641Z,19.75
2022-10-30T14:34:02.258Z,19.59
2022-10-30T14:36:34.416Z,19.54
2022-10-30T14:39:10.456Z,19.54
2022-10-30T14:42:04.458Z,19.54
2022-10-30T14:45:03.083Z,19.47
2022-10-30T14:47:54.414Z,19.40
2022-10-30T14:50:26.811Z,19.37
2022-10-30T14:53:24.305Z,19.32
2022-10-30T14:56:01.782Z,19.24
2022-10-30T14:58:33.212Z,19.24
2022-10-30T15:01:44.831Z,19.22
2022-10-30T15:05:09.675Z,19.20
2022-10-30T15:07:49.206Z,19.15
2022-10-30T15:10:34.697Z,19.10
2022-10-30T15:13:21.862Z,19.03
2022-10-30T15:15:58.842Z,19.04
2022-10-30T15:18:29.432Z,18.91
2022-10-30T15:21:04.017Z,18.91
2022-10-30T15:23:34.041Z,18.82
2022-10-30T15:26:09.172Z,18.74
2022-10-30T15:28:38.742Z,18.75
2022-10-30T15:31:06.461Z,18.57
2022-10-30T15:33:37.561Z,18.44
2022-10-30T15:36:05.351Z,18.32
2022-10-30T15:38:32.113Z,18.20
2022-10-30T15:41:01.932Z,17.88
2022-10-30T15:43:35.507Z,17.88
2022-10-30T15:46:07.991Z,17.70
2022-10-30T15:48:35.802Z,17.41
2022-10-30T15:51:06.052Z,17.55
2022-10-30T15:53:43.451Z,17.38
2022-10-30T15:56:20.106Z,17.15
2022-10-30T15:58:54.283Z,16.91
2022-10-30T16:01:26.194Z,16.98
2022-10-30T16:03:54.085Z,16.73
2022-10-30T16:06:25.382Z,16.78
2022-10-30T16:08:52.070Z,16.76
2022-10-30T16:11:20.926Z,16.51
2022-10-30T16:13:47.673Z,16.66
2022-10-30T16:16:22.059Z,16.60
2022-10-30T16:18:49.175Z,16.83
2022-10-30T16:21:18.599Z,16.59
2022-10-30T16:23:51.874Z,16.60
2022-10-30T16:26:38.132Z,16.77
2022-10-30T16:29:07.263Z,16.91
2022-10-30T16:31:36.163Z,16.60
2022-10-30T16:34:05.166Z,16.54
2022-10-30T16:36:32.360Z,16.48
2022-10-30T16:38:58.983Z,16.18
2022-10-30T16:41:28.010Z,16.43
2022-10-30T16:44:12.790Z,16.31
2022-10-30T16:46:46.264Z,16.41
2022-10-30T16:49:18.218Z,16.40
2022-10-30T16:51:45.098Z,16.31
2022-10-30T16:54:25.131Z,16.24
2022-10-30T16:56:55.549Z,16.17
2022-10-30T16:59:35.369Z,16.15
2022-10-30T17:02:12.563Z,16.10
2022-10-30T17:04:42.686Z,16.07
2022-10-30T17:07:37.030Z,16.03
2022-10-30T17:10:23.830Z,16.07
2022-10-30T17:12:50.225Z,15.84
2022-10-30T17:15:20.902Z,15.78
2022-10-30T17:18:11.787Z,15.84
2022-10-30T17:20:38.213Z,15.93
2022-10-30T17:23:16.170Z,16.26
2022-10-30T17:25:42.602Z,16.28
2022-10-30T17:28:26.906Z,16.37
2022-10-30T17:30:53.376Z,16.23
2022-10-30T17:33:30.070Z,15.96
2022-10-30T17:35:56.598Z,15.80
2022-10-30T17:38:22.960Z,15.73
2022-10-30T17:40:49.545Z,15.65
2022-10-30T17:43:16.738Z,15.74
2022-10-30T17:45:44.177Z,15.83
2022-10-30T17:48:13.932Z,15.82
2022-10-30T17:50:40.934Z,15.81
2022-10-30T17:53:15.087Z,15.65
2022-10-30T17:55:44.147Z,15.66
2022-10-30T17:58:11.019Z,15.60
2022-10-30T18:00:37.434Z,15.63
2022-10-30T18:03:04.501Z,15.62
2022-10-30T18:05:33.590Z,15.57
2022-10-30T18:08:00.013Z,15.52
2022-10-30T18:10:26.589Z,15.36
2022-10-30T18:12:52.944Z,15.33
2022-10-30T18:15:28.236Z,15.40
2022-10-30T18:17:54.862Z,15.42
2022-10-30T18:20:21.811Z,15.55
2022-10-30T18:22:48.286Z,15.58
2022-10-30T18:25:35.349Z,15.56
2022-10-30T18:28:02.603Z,15.44
2022-10-30T18:30:29.409Z,15.56
2022-10-30T18:32:56.644Z,15.55
2022-10-30T18:35:30.385Z,15.48
2022-10-30T18:37:57.769Z,15.45
2022-10-30T18:40:24.780Z,15.47
2022-10-30T18:42:51.478Z,15.50
2022-10-30T18:45:19.887Z,15.43
2022-10-30T18:47:47.009Z,15.32
2022-10-30T18:50:13.934Z,15.57
2022-10-30T18:52:40.748Z,15.47
2022-10-30T18:55:23.710Z,15.55
2022-10-30T18:57:52.020Z,15.42
2022-10-30T19:00:23.523Z,15.53
2022-10-30T19:02:50.002Z,15.50
2022-10-30T19:05:40.226Z,15.47
2022-10-30T19:08:07.175Z,15.42
2022-10-30T19:10:36.573Z,15.59
2022-10-30T19:13:16.007Z,15.52
2022-10-30T19:15:46.238Z,15.57
2022-10-30T19:18:13.055Z,15.56
2022-10-30T19:20:58.875Z,15.40
2022-10-30T19:23:26.533Z,15.42
2022-10-30T19:25:53.477Z,15.28
2022-10-30T19:28:21.178Z,15.02
2022-10-30T19:30:54.620Z,15.11
2022-10-30T19:33:22.618Z,14.99
2022-10-30T19:36:01.095Z,14.90
2022-10-30T19:38:28.213Z,14.80
2022-10-30T19:40:54.605Z,14.74
2022-10-30T19:43:21.094Z,14.71
2022-10-30T19:45:51.248Z,14.67
2022-10-30T19:48:40.508Z,14.58
2022-10-30T19:51:09.267Z,14.59
2022-10-30T19:53:35.740Z,14.57
2022-10-30T19:56:02.331Z,14.59
2022-10-30T19:58:28.750Z,14.70
2022-10-30T20:00:55.558Z,14.71
2022-10-30T20:03:22.083Z,14.58
2022-10-30T20:05:52.066Z,14.68
2022-10-30T20:08:19.929Z,14.57
2022-10-30T20:11:02.267Z,14.60
2022-10-30T20:13:29.794Z,14.57
2022-10-30T20:15:58.716Z,14.59
2022-10-30T20:18:30.128Z,14.67
2022-10-30T20:20:59.200Z,14.60
2022-10-30T20:23:26.448Z,14.52
2022-10-30T20:25:55.303Z,14.56
2022-10-30T20:28:26.735Z,14.70
2022-10-30T20:30:54.205Z,14.68
2022-10-30T20:33:21.664Z,14.64
2022-10-30T20:35:49.848Z,14.70
2022-10-30T20:38:29.137Z,14.68
2022-10-30T20:40:58.241Z,14.66
2022-10-30T20:43:40.266Z,14.76
2022-10-30T20:46:09.807Z,14.66
2022-10-30T20:48:37.985Z,14.60
2022-10-30T20:51:06.013Z,14.38
2022-10-30T20:53:32.692Z,14.42
2022-10-30T20:55:59.141Z,14.41
2022-10-30T20:58:26.758Z,14.34
2022-10-30T21:00:58.272Z,14.36
2022-10-30T21:03:26.503Z,14.35
2022-10-30T21:05:58.426Z,14.36
2022-10-30T21:08:29.248Z,14.07
2022-10-30T21:11:00.200Z,14.14
2022-10-30T21:13:27.255Z,13.99
2022-10-30T21:15:53.996Z,13.86
2022-10-30T21:18:20.546Z,13.78
2022-10-30T21:20:46.950Z,13.68
2022-10-30T21:23:13.369Z,13.63
2022-10-30T21:25:39.801Z,13.53
2022-10-30T21:28:06.217Z,13.64
2022-10-30T21:30:32.632Z,13.52
2022-10-30T21:32:59.638Z,13.55
2022-10-30T21:35:27.102Z,13.53
2022-10-30T21:37:53.567Z,13.49
2022-10-30T21:40:19.934Z,13.47
2022-10-30T21:42:49.170Z,13.35
2022-10-30T21:45:15.868Z,13.41
2022-10-30T21:47:42.358Z,13.34
2022-10-30T21:50:12.207Z,13.46
2022-10-30T21:52:39.598Z,13.47
2022-10-30T21:55:06.266Z,13.53
2022-10-30T21:57:32.594Z,13.26
2022-10-30T22:00:01.762Z,13.48
2022-10-30T22:02:32.621Z,13.53
2022-10-30T22:04:58.966Z,13.54
2022-10-30T22:07:25.309Z,13.55
2022-10-30T22:09:53.418Z,13.61
2022-10-30T22:12:19.790Z,13.54
2022-10-30T22:14:46.131Z,13.61
2022-10-30T22:17:12.826Z,13.56
2022-10-30T22:19:39.263Z,13.47
2022-10-30T22:22:06.710Z,13.36
2022-10-30T22:24:33.083Z,13.32
2022-10-30T22:26:59.439Z,13.36
2022-10-30T22:29:25.852Z,13.23
2022-10-30T22:31:52.248Z,13.33
2022-10-30T22:34:18.618Z,13.30
2022-10-30T22:36:45.059Z,13.29
2022-10-30T22:39:13.340Z,13.23
2022-10-30T22:41:40.569Z,13.14
2022-10-30T22:44:10.630Z,13.10
2022-10-30T22:46:37.253Z,13.02
2022-10-30T22:49:04.310Z,13.04
2022-10-30T22:51:32.466Z,13.06
2022-10-30T22:54:01.556Z,12.85
2022-10-30T22:56:30.750Z,12.88
2022-10-30T22:59:00.030Z,12.89
2022-10-30T23:01:29.363Z,12.84
2022-10-30T23:03:57.886Z,12.84
2022-10-30T23:06:25.035Z,13.04
2022-10-30T23:08:52.659Z,13.00
2022-10-30T23:11:19.561Z,12.95
2022-10-30T23:13:46.646Z,12.96
2022-10-30T23:16:15.642Z,12.92
2022-10-30T23:18:42.640Z,12.77
2022-10-30T23:21:15.901Z,12.78
2022-10-30T23:23:43.525Z,12.65
2022-10-30T23:26:18.377Z,12.54
2022-10-30T23:28:45.489Z,12.53
2022-10-30T23:31:28.400Z,12.41
2022-10-30T23:34:00.294Z,12.27
2022-10-30T23:36:26.945Z,12.26
2022-10-30T23:38:54.844Z,12.13
2022-10-30T23:41:22.788Z,12.18
2022-10-30T23:43:53.294Z,12.17
2022-10-30T23:46:19.699Z,12.03
2022-10-30T23:48:46.086Z,12.02
2022-10-30T23:51:12.539Z,12.12
2022-10-30T23:53:38.936Z,12.11
2022-10-30T23:56:06.078Z,12.05
2022-10-30T23:58:32.894Z,11.99
